createdAt,value
2018-02-10T00:00:15.095Z,992.90
2018-02-10T00:01:15.123Z,992.86
2018-02-10T00:02:15.154Z,992.91
2018-02-10T00:03:15.179Z,992.92
2018-02-10T00:04:15.210Z,992.91
2018-02-10T00:05:15.244Z,992.94
2018-02-10T00:06:15.342Z,992.90
2018-02-10T00:07:15.314Z,992.91
2018-02-10T00:08:15.326Z,992.91
2018-02-10T00:09:15.350Z,992.92
2018-02-10T00:10:15.381Z,992.94
2018-02-10T00:11:15.408Z,992.93
2018-02-10T00:12:15.450Z,992.96
2018-02-10T00:13:15.469Z,992.92
2018-02-10T00:14:15.498Z,992.96
2018-02-10T00:15:15.525Z,992.94
2018-02-10T00:16:15.556Z,992.94
2018-02-10T00:17:15.586Z,992.94
2018-02-10T00:18:15.619Z,992.91
2018-02-10T00:19:15.642Z,992.97
2018-02-10T00:20:15.675Z,993.00
2018-02-10T00:21:15.701Z,992.98
2018-02-10T00:22:15.730Z,992.98
2018-02-10T00:23:15.859Z,993.01
2018-02-10T00:24:15.795Z,993.04
2018-02-10T00:25:15.817Z,993.05
2018-02-10T00:26:16.047Z,993.05
2018-02-10T00:27:15.940Z,993.06
2018-02-10T00:28:15.932Z,993.05
2018-02-10T00:29:15.936Z,993.00
2018-02-10T00:30:15.961Z,993.06
2018-02-10T00:31:15.995Z,993.05
2018-02-10T00:32:16.021Z,993.04
2018-02-10T00:33:16.061Z,993.08
2018-02-10T00:34:16.079Z,993.06
2018-02-10T00:35:16.262Z,993.07
2018-02-10T00:36:16.195Z,993.09
2018-02-10T00:37:16.164Z,993.03
2018-02-10T00:38:16.200Z,993.09
2018-02-10T00:39:16.486Z,993.09
2018-02-10T00:40:16.249Z,993.07
2018-02-10T00:41:16.278Z,993.02
2018-02-10T00:42:16.321Z,993.05
2018-02-10T00:43:16.339Z,993.02
2018-02-10T00:44:16.373Z,992.98
2018-02-10T00:45:16.455Z,993.01
2018-02-10T00:46:16.429Z,993.01
2018-02-10T00:47:16.521Z,993.02
2018-02-10T00:48:16.490Z,993.04
2018-02-10T00:49:16.512Z,993.02
2018-02-10T00:50:16.544Z,992.99
2018-02-10T00:51:16.631Z,993.02
2018-02-10T00:52:16.602Z,993.04
2018-02-10T00:53:16.629Z,993.00
2018-02-10T00:54:16.661Z,993.02
2018-02-10T00:55:16.683Z,993.01
2018-02-10T00:56:16.716Z,993.03
2018-02-10T00:57:16.943Z,993.04
2018-02-10T00:58:16.794Z,993.05
2018-02-10T00:59:16.814Z,993.02
2018-02-10T01:00:16.830Z,993.03
2018-02-10T01:01:16.861Z,993.03
2018-02-10T01:02:16.938Z,993.08
2018-02-10T01:03:16.916Z,993.04
2018-02-10T01:04:17.154Z,993.04
2018-02-10T01:05:16.990Z,993.05
2018-02-10T01:06:17.004Z,993.04
2018-02-10T01:07:17.030Z,993.07
2018-02-10T01:08:17.077Z,993.07
2018-02-10T01:09:17.154Z,993.05
2018-02-10T01:10:17.122Z,993.04
2018-02-10T01:11:17.146Z,993.07
2018-02-10T01:12:17.174Z,993.09
2018-02-10T01:13:17.272Z,993.09
2018-02-10T01:14:17.234Z,993.07
2018-02-10T01:15:17.263Z,993.10
2018-02-10T01:16:17.363Z,993.09
2018-02-10T01:17:17.323Z,993.10
2018-02-10T01:18:17.353Z,993.09
2018-02-10T01:19:17.384Z,993.09
2018-02-10T01:20:17.415Z,993.06
2018-02-10T01:21:17.441Z,993.07
2018-02-10T01:22:17.467Z,993.07
2018-02-10T01:23:17.557Z,993.01
2018-02-10T01:24:17.529Z,993.01
2018-02-10T01:25:17.553Z,993.05
2018-02-10T01:26:17.652Z,993.06
2018-02-10T01:27:17.669Z,993.07
2018-02-10T01:28:17.672Z,993.05
2018-02-10T01:29:17.689Z,993.07
2018-02-10T01:30:17.700Z,993.03
2018-02-10T01:31:17.726Z,993.06
2018-02-10T01:32:17.757Z,993.06
2018-02-10T01:33:17.791Z,993.09
2018-02-10T01:34:17.818Z,993.11
2018-02-10T01:35:17.846Z,993.07
2018-02-10T01:36:17.875Z,993.07
2018-02-10T01:37:17.903Z,993.08
2018-02-10T01:38:18.004Z,993.06
2018-02-10T01:39:17.965Z,993.09
2018-02-10T01:40:17.993Z,993.05
2018-02-10T01:41:18.023Z,993.08
2018-02-10T01:42:18.049Z,993.02
2018-02-10T01:43:18.076Z,993.03
2018-02-10T01:44:18.124Z,993.05
2018-02-10T01:45:18.195Z,993.02
2018-02-10T01:46:18.166Z,993.04
2018-02-10T01:47:18.193Z,993.06
2018-02-10T01:48:18.241Z,993.08
2018-02-10T01:49:18.254Z,993.06
2018-02-10T01:50:18.281Z,993.03
2018-02-10T01:51:18.311Z,993.03
2018-02-10T01:52:18.340Z,993.03
2018-02-10T01:53:18.369Z,993.02
2018-02-10T01:54:18.410Z,993.02
2018-02-10T01:55:18.496Z,993.00
2018-02-10T01:56:18.463Z,993.04
2018-02-10T01:57:18.497Z,993.03
2018-02-10T01:58:18.513Z,993.07
2018-02-10T01:59:18.745Z,993.08
2018-02-10T02:00:18.569Z,993.06
2018-02-10T02:01:18.599Z,993.06
2018-02-10T02:02:18.631Z,993.08
2018-02-10T02:03:18.658Z,993.08
2018-02-10T02:05:18.719Z,993.11
2018-02-10T02:07:18.869Z,993.08
2018-02-10T02:08:18.809Z,993.10
2018-02-10T02:09:18.835Z,993.05
2018-02-10T02:10:18.860Z,993.10
2018-02-10T02:11:18.894Z,993.12
2018-02-10T02:12:18.932Z,993.10
2018-02-10T02:13:18.954Z,993.15
2018-02-10T02:14:18.987Z,993.13
2018-02-10T02:15:19.010Z,993.12
2018-02-10T02:16:19.036Z,993.11
2018-02-10T02:17:19.269Z,993.11
2018-02-10T02:18:19.095Z,993.10
2018-02-10T02:19:19.120Z,993.10
2018-02-10T02:20:19.169Z,993.11
2018-02-10T02:21:19.188Z,993.09
2018-02-10T02:22:19.412Z,993.11
2018-02-10T02:23:19.253Z,993.12
2018-02-10T02:24:19.273Z,993.10
2018-02-10T02:25:19.299Z,993.10
2018-02-10T02:26:19.324Z,993.10
2018-02-10T02:27:19.356Z,993.06
2018-02-10T02:28:19.385Z,992.99
2018-02-10T02:29:19.424Z,993.03
2018-02-10T02:30:19.443Z,993.03
2018-02-10T02:31:19.796Z,993.01
2018-02-10T02:32:19.503Z,993.02
2018-02-10T02:33:19.527Z,993.00
2018-02-10T02:34:19.583Z,992.99
2018-02-10T02:35:19.593Z,993.02
2018-02-10T02:36:19.615Z,992.96
2018-02-10T02:37:19.645Z,992.98
2018-02-10T02:38:19.673Z,992.98
2018-02-10T02:39:19.706Z,993.05
2018-02-10T02:40:19.739Z,993.01
2018-02-10T02:41:19.761Z,992.99
2018-02-10T02:42:20.046Z,993.01
2018-02-10T02:43:19.818Z,993.04
2018-02-10T02:44:19.847Z,993.02
2018-02-10T02:45:19.873Z,993.02
2018-02-10T02:46:19.921Z,993.03
2018-02-10T02:47:19.933Z,992.99
2018-02-10T02:48:19.963Z,992.99
2018-02-10T02:49:19.989Z,993.02
2018-02-10T02:50:20.080Z,992.97
2018-02-10T02:51:20.104Z,992.93
2018-02-10T02:52:20.080Z,992.96
2018-02-10T02:53:20.169Z,992.93
2018-02-10T02:54:20.137Z,992.97
2018-02-10T02:55:20.175Z,992.98
2018-02-10T02:56:20.403Z,992.94
2018-02-10T02:57:20.221Z,992.95
2018-02-10T02:58:20.259Z,992.97
2018-02-10T02:59:20.285Z,992.92
2018-02-10T03:00:20.311Z,992.95
2018-02-10T03:01:20.339Z,992.92
2018-02-10T03:02:20.365Z,992.96
2018-02-10T03:03:20.400Z,992.95
2018-02-10T03:04:20.426Z,992.95
2018-02-10T03:05:20.449Z,992.93
2018-02-10T03:06:20.481Z,992.96
2018-02-10T03:07:20.510Z,992.98
2018-02-10T03:08:20.540Z,992.98
2018-02-10T03:09:20.568Z,992.98
2018-02-10T03:10:20.984Z,993.00
2018-02-10T03:11:20.636Z,993.01
2018-02-10T03:12:20.660Z,992.97
2018-02-10T03:13:20.745Z,992.97
2018-02-10T03:14:20.712Z,992.95
2018-02-10T03:15:20.740Z,993.00
2018-02-10T03:16:20.831Z,992.99
2018-02-10T03:17:20.801Z,993.01
2018-02-10T03:18:20.879Z,993.02
2018-02-10T03:19:20.857Z,992.99
2018-02-10T03:20:20.889Z,993.02
2018-02-10T03:21:20.913Z,993.03
2018-02-10T03:22:20.945Z,993.04
2018-02-10T03:23:20.970Z,993.05
2018-02-10T03:24:20.999Z,993.04
2018-02-10T03:25:21.030Z,993.02
2018-02-10T03:26:21.058Z,993.05
2018-02-10T03:27:21.169Z,993.00
2018-02-10T03:28:21.119Z,993.01
2018-02-10T03:29:21.145Z,993.03
2018-02-10T03:30:21.172Z,993.00
2018-02-10T03:31:21.204Z,993.02
2018-02-10T03:33:21.259Z,993.00
2018-02-10T03:34:21.289Z,992.98
2018-02-10T03:35:21.320Z,993.00
2018-02-10T03:36:21.345Z,993.03
2018-02-10T03:37:21.376Z,993.00
2018-02-10T03:38:21.405Z,993.03
2018-02-10T03:39:21.455Z,992.95
2018-02-10T03:40:21.460Z,992.97
2018-02-10T03:41:21.490Z,992.98
2018-02-10T03:42:21.525Z,992.95
2018-02-10T03:43:21.549Z,992.92
2018-02-10T03:44:21.581Z,992.95
2018-02-10T03:45:21.606Z,992.94
2018-02-10T03:46:21.687Z,992.88
2018-02-10T03:47:21.664Z,992.89
2018-02-10T03:48:21.692Z,992.88
2018-02-10T03:49:21.740Z,992.90
2018-02-10T03:50:21.754Z,992.85
2018-02-10T03:51:21.781Z,992.89
2018-02-10T03:52:21.812Z,992.90
2018-02-10T03:53:21.848Z,992.87
2018-02-10T03:54:21.865Z,992.87
2018-02-10T03:55:21.894Z,992.89
2018-02-10T03:56:21.967Z,992.90
2018-02-10T03:57:21.952Z,992.90
2018-02-10T03:58:21.983Z,992.91
2018-02-10T03:59:22.013Z,992.94
2018-02-10T04:00:22.039Z,992.94
2018-02-10T04:01:22.070Z,992.97
2018-02-10T04:02:22.095Z,992.97
2018-02-10T04:03:22.500Z,992.99
2018-02-10T04:04:22.156Z,993.00
2018-02-10T04:05:22.182Z,993.01
2018-02-10T04:06:22.213Z,992.96
2018-02-10T04:07:22.239Z,993.01
2018-02-10T04:08:22.269Z,992.99
2018-02-10T04:09:22.297Z,992.99
2018-02-10T04:10:22.327Z,993.01
2018-02-10T04:11:22.354Z,992.98
2018-02-10T04:12:22.383Z,992.97
2018-02-10T04:13:22.413Z,993.01
2018-02-10T04:14:22.444Z,992.98
2018-02-10T04:15:22.470Z,992.97
2018-02-10T04:16:22.501Z,992.99
2018-02-10T04:17:22.528Z,992.99
2018-02-10T04:18:22.561Z,992.97
2018-02-10T04:19:22.588Z,992.97
2018-02-10T04:20:22.665Z,992.95
2018-02-10T04:21:22.643Z,992.96
2018-02-10T04:22:22.670Z,992.94
2018-02-10T04:23:22.706Z,992.94
2018-02-10T04:24:22.730Z,992.91
2018-02-10T04:25:22.758Z,992.90
2018-02-10T04:26:22.786Z,992.92
2018-02-10T04:27:22.911Z,992.93
2018-02-10T04:28:22.846Z,992.95
2018-02-10T04:29:22.877Z,992.98
2018-02-10T04:30:22.903Z,993.00
2018-02-10T04:31:22.933Z,993.01
2018-02-10T04:32:22.963Z,993.01
2018-02-10T04:33:22.994Z,993.04
2018-02-10T04:34:23.018Z,993.01
2018-02-10T04:35:23.048Z,993.03
2018-02-10T04:36:23.077Z,993.08
2018-02-10T04:37:23.112Z,993.07
2018-02-10T04:38:23.131Z,993.11
2018-02-10T04:39:23.230Z,993.13
2018-02-10T04:40:23.189Z,993.10
2018-02-10T04:41:23.217Z,993.10
2018-02-10T04:42:23.249Z,993.10
2018-02-10T04:43:23.274Z,993.12
2018-02-10T04:44:23.307Z,993.13
2018-02-10T04:45:23.333Z,993.16
2018-02-10T04:46:23.362Z,993.11
2018-02-10T04:47:23.389Z,993.15
2018-02-10T04:48:23.419Z,993.16
2018-02-10T04:49:23.449Z,993.19
2018-02-10T04:50:23.479Z,993.20
2018-02-10T04:51:23.504Z,993.21
2018-02-10T04:52:23.533Z,993.24
2018-02-10T04:53:23.559Z,993.22
2018-02-10T04:54:23.589Z,993.25
2018-02-10T04:55:23.619Z,993.24
2018-02-10T04:56:23.703Z,993.23
2018-02-10T04:57:23.689Z,993.29
2018-02-10T04:58:23.703Z,993.24
2018-02-10T04:59:23.730Z,993.29
2018-02-10T05:00:23.761Z,993.24
2018-02-10T05:01:23.790Z,993.23
2018-02-10T05:02:23.821Z,993.26
2018-02-10T05:03:23.846Z,993.24
2018-02-10T05:04:23.875Z,993.23
2018-02-10T05:05:23.903Z,993.23
2018-02-10T05:06:23.951Z,993.24
2018-02-10T05:07:23.963Z,993.28
2018-02-10T05:08:23.991Z,993.29
2018-02-10T05:09:24.022Z,993.25
2018-02-10T05:10:24.047Z,993.29
2018-02-10T05:11:24.076Z,993.29
2018-02-10T05:13:24.198Z,993.32
2018-02-10T05:14:24.163Z,993.28
2018-02-10T05:15:24.193Z,993.32
2018-02-10T05:16:24.219Z,993.34
2018-02-10T05:17:24.248Z,993.32
2018-02-10T05:18:24.275Z,993.35
2018-02-10T05:19:24.305Z,993.34
2018-02-10T05:20:24.333Z,993.33
2018-02-10T05:21:24.363Z,993.34
2018-02-10T05:22:24.394Z,993.30
2018-02-10T05:23:24.419Z,993.25
2018-02-10T05:24:24.446Z,993.27
2018-02-10T05:25:24.497Z,993.25
2018-02-10T05:26:24.505Z,993.26
2018-02-10T05:27:24.536Z,993.20
2018-02-10T05:28:24.564Z,993.20
2018-02-10T05:29:24.589Z,993.24
2018-02-10T05:30:24.618Z,993.22
2018-02-10T05:31:24.646Z,993.20
2018-02-10T05:32:24.677Z,993.21
2018-02-10T05:33:24.706Z,993.22
2018-02-10T05:34:24.735Z,993.19
2018-02-10T05:35:24.758Z,993.23
2018-02-10T05:36:24.795Z,993.25
2018-02-10T05:37:24.819Z,993.13
2018-02-10T05:38:24.857Z,993.19
2018-02-10T05:39:24.875Z,993.25
2018-02-10T05:40:24.905Z,993.26
2018-02-10T05:41:24.937Z,993.26
2018-02-10T05:42:25.061Z,993.28
2018-02-10T05:43:24.989Z,993.26
2018-02-10T05:44:25.079Z,993.30
2018-02-10T05:45:25.047Z,993.31
2018-02-10T05:46:25.075Z,993.34
2018-02-10T05:47:25.109Z,993.36
2018-02-10T05:48:25.185Z,993.36
2018-02-10T05:49:25.228Z,993.34
2018-02-10T05:50:25.189Z,993.31
2018-02-10T05:51:25.221Z,993.30
2018-02-10T05:52:25.248Z,993.28
2018-02-10T05:53:25.336Z,993.27
2018-02-10T05:54:25.302Z,993.28
2018-02-10T05:55:25.330Z,993.24
2018-02-10T05:56:25.431Z,993.26
2018-02-10T05:57:25.387Z,993.23
2018-02-10T05:58:25.418Z,993.21
2018-02-10T05:59:25.447Z,993.21
2018-02-10T06:00:25.478Z,993.21
2018-02-10T06:01:25.512Z,993.25
2018-02-10T06:02:25.529Z,993.23
2018-02-10T06:03:25.558Z,993.24
2018-02-10T06:04:25.590Z,993.25
2018-02-10T06:05:25.614Z,993.27
2018-02-10T06:06:25.692Z,993.29
2018-02-10T06:07:25.669Z,993.35
2018-02-10T06:08:25.700Z,993.33
2018-02-10T06:09:25.731Z,993.34
2018-02-10T06:10:25.760Z,993.34
2018-02-10T06:11:25.785Z,993.39
2018-02-10T06:12:25.815Z,993.36
2018-02-10T06:13:25.886Z,993.42
2018-02-10T06:14:25.870Z,993.44
2018-02-10T06:15:25.900Z,993.42
2018-02-10T06:16:25.931Z,993.44
2018-02-10T06:17:25.965Z,993.46
2018-02-10T06:18:25.982Z,993.47
2018-02-10T06:19:26.011Z,993.45
2018-02-10T06:20:26.038Z,993.44
2018-02-10T06:21:26.066Z,993.49
2018-02-10T06:22:26.099Z,993.49
2018-02-10T06:23:26.123Z,993.49
2018-02-10T06:24:26.205Z,993.51
2018-02-10T06:25:26.210Z,993.53
2018-02-10T06:26:26.212Z,993.56
2018-02-10T06:27:26.234Z,993.53
2018-02-10T06:28:26.275Z,993.55
2018-02-10T06:29:26.292Z,993.56
2018-02-10T06:30:26.322Z,993.59
2018-02-10T06:31:26.363Z,993.57
2018-02-10T06:32:26.377Z,993.55
2018-02-10T06:33:26.405Z,993.57
2018-02-10T06:34:26.432Z,993.60
2018-02-10T06:35:26.467Z,993.54
2018-02-10T06:36:26.490Z,993.57
2018-02-10T06:37:26.518Z,993.56
2018-02-10T06:38:26.545Z,993.57
2018-02-10T06:39:26.572Z,993.61
2018-02-10T06:40:26.623Z,993.56
2018-02-10T06:41:26.635Z,993.62
2018-02-10T06:42:26.710Z,993.61
2018-02-10T06:43:26.687Z,993.61
2018-02-10T06:44:26.714Z,993.61
2018-02-10T06:45:26.744Z,993.62
2018-02-10T06:46:26.773Z,993.65
2018-02-10T06:47:26.798Z,993.67
2018-02-10T06:48:26.827Z,993.68
2018-02-10T06:49:26.854Z,993.67
2018-02-10T06:50:26.885Z,993.67
2018-02-10T06:51:26.910Z,993.67
2018-02-10T06:52:26.940Z,993.71
2018-02-10T06:53:26.976Z,993.67
2018-02-10T06:54:26.997Z,993.72
2018-02-10T06:55:27.026Z,993.70
2018-02-10T06:56:27.049Z,993.70
2018-02-10T06:57:27.078Z,993.71
2018-02-10T06:58:27.108Z,993.71
2018-02-10T06:59:27.177Z,993.71
2018-02-10T07:00:27.161Z,993.75
2018-02-10T07:01:27.190Z,993.73
2018-02-10T07:02:27.224Z,993.78
2018-02-10T07:03:27.294Z,993.79
2018-02-10T07:04:27.290Z,993.73
2018-02-10T07:05:27.301Z,993.77
2018-02-10T07:06:27.360Z,993.75
2018-02-10T07:07:27.559Z,993.78
2018-02-10T07:08:27.394Z,993.78
2018-02-10T07:09:27.421Z,993.77
2018-02-10T07:10:27.455Z,993.82
2018-02-10T07:11:27.477Z,993.86
2018-02-10T07:12:27.500Z,993.83
2018-02-10T07:13:27.527Z,993.90
2018-02-10T07:14:27.556Z,993.91
2018-02-10T07:15:27.583Z,993.93
2018-02-10T07:16:27.609Z,993.93
2018-02-10T07:17:27.638Z,993.94
2018-02-10T07:18:27.818Z,993.90
2018-02-10T07:19:27.697Z,993.93
2018-02-10T07:20:27.723Z,993.91
2018-02-10T07:21:27.758Z,993.92
2018-02-10T07:22:27.779Z,993.95
2018-02-10T07:23:27.808Z,993.95
2018-02-10T07:24:27.840Z,993.96
2018-02-10T07:25:27.930Z,993.99
2018-02-10T07:26:27.897Z,993.99
2018-02-10T07:27:27.923Z,993.98
2018-02-10T07:28:27.951Z,993.94
2018-02-10T07:29:27.981Z,993.98
2018-02-10T07:30:28.015Z,993.96
2018-02-10T07:31:28.052Z,993.96
2018-02-10T07:32:28.070Z,993.95
2018-02-10T07:33:28.106Z,993.92
2018-02-10T07:34:28.144Z,993.95
2018-02-10T07:35:28.176Z,993.91
2018-02-10T07:36:28.182Z,993.90
2018-02-10T07:37:28.206Z,993.88
2018-02-10T07:38:28.235Z,993.90
2018-02-10T07:39:28.261Z,993.88
2018-02-10T07:40:28.290Z,993.88
2018-02-10T07:41:28.324Z,993.90
2018-02-10T07:42:28.354Z,993.88
2018-02-10T07:44:28.403Z,993.87
2018-02-10T07:45:28.433Z,993.84
2018-02-10T07:46:28.515Z,993.87
2018-02-10T07:47:28.496Z,993.87
2018-02-10T07:48:28.524Z,993.87
2018-02-10T07:49:28.551Z,993.87
2018-02-10T07:50:28.577Z,993.91
2018-02-10T07:51:28.812Z,993.89
2018-02-10T07:52:28.842Z,994.01
2018-02-10T07:53:28.680Z,993.92
2018-02-10T07:54:28.704Z,993.98
2018-02-10T07:55:28.722Z,993.92
2018-02-10T07:56:28.747Z,993.96
2018-02-10T07:57:28.778Z,993.96
2018-02-10T07:58:28.805Z,993.94
2018-02-10T07:59:28.856Z,993.94
2018-02-10T08:00:28.863Z,993.96
2018-02-10T08:01:28.895Z,993.94
2018-02-10T08:02:28.920Z,993.97
2018-02-10T08:03:28.948Z,994.00
2018-02-10T08:04:28.978Z,993.96
2018-02-10T08:05:29.007Z,994.01
2018-02-10T08:06:29.033Z,993.98
2018-02-10T08:07:29.063Z,993.96
2018-02-10T08:08:29.094Z,993.96
2018-02-10T08:09:29.119Z,993.97
2018-02-10T08:10:29.149Z,993.96
2018-02-10T08:11:29.277Z,993.99
2018-02-10T08:12:29.205Z,994.02
2018-02-10T08:13:29.236Z,994.01
2018-02-10T08:14:29.263Z,994.05
2018-02-10T08:15:29.292Z,994.02
2018-02-10T08:16:29.321Z,994.03
2018-02-10T08:17:29.350Z,994.02
2018-02-10T08:18:29.378Z,994.07
2018-02-10T08:19:29.429Z,994.03
2018-02-10T08:20:29.436Z,994.07
2018-02-10T08:21:29.668Z,994.05
2018-02-10T08:22:29.491Z,994.06
2018-02-10T08:23:29.520Z,994.07
2018-02-10T08:24:29.551Z,994.09
2018-02-10T08:25:29.578Z,994.05
2018-02-10T08:26:29.607Z,994.08
2018-02-10T08:27:29.636Z,994.09
2018-02-10T08:28:29.991Z,994.11
2018-02-10T08:29:29.714Z,994.11
2018-02-10T08:30:29.726Z,994.12
2018-02-10T08:31:29.759Z,994.17
2018-02-10T08:32:29.803Z,994.11
2018-02-10T08:33:29.809Z,994.16
2018-02-10T08:34:29.851Z,994.16
2018-02-10T08:35:29.875Z,994.12
2018-02-10T08:36:29.897Z,994.18
2018-02-10T08:37:29.926Z,994.17
2018-02-10T08:38:29.956Z,994.18
2018-02-10T08:39:30.043Z,994.18
2018-02-10T08:40:30.029Z,994.19
2018-02-10T08:41:30.043Z,994.18
2018-02-10T08:42:30.071Z,994.23
2018-02-10T08:43:30.098Z,994.21
2018-02-10T08:44:30.128Z,994.22
2018-02-10T08:45:30.359Z,994.19
2018-02-10T08:46:30.396Z,994.17
2018-02-10T08:47:30.222Z,994.17
2018-02-10T08:48:30.244Z,994.17
2018-02-10T08:49:30.277Z,994.18
2018-02-10T08:50:30.303Z,994.18
2018-02-10T08:51:30.334Z,994.17
2018-02-10T08:52:30.359Z,994.15
2018-02-10T08:53:30.392Z,994.16
2018-02-10T08:54:30.419Z,994.17
2018-02-10T08:55:30.449Z,994.17
2018-02-10T08:56:30.480Z,994.15
2018-02-10T08:57:30.560Z,994.13
2018-02-10T08:58:30.534Z,994.15
2018-02-10T08:59:30.565Z,994.15
2018-02-10T09:00:30.594Z,994.11
2018-02-10T09:01:30.626Z,994.10
2018-02-10T09:02:30.650Z,994.14
2018-02-10T09:03:30.681Z,994.14
2018-02-10T09:04:30.822Z,994.18
2018-02-10T09:05:30.749Z,994.17
2018-02-10T09:06:30.769Z,994.20
2018-02-10T09:07:30.796Z,994.21
2018-02-10T09:08:30.826Z,994.24
2018-02-10T09:09:30.853Z,994.27
2018-02-10T09:10:30.883Z,994.26
2018-02-10T09:11:30.929Z,994.23
2018-02-10T09:12:30.944Z,994.22
2018-02-10T09:13:30.972Z,994.22
2018-02-10T09:14:31.001Z,994.24
2018-02-10T09:15:31.029Z,994.23
2018-02-10T09:16:31.063Z,994.25
2018-02-10T09:17:31.087Z,994.24
2018-02-10T09:18:31.116Z,994.28
2018-02-10T09:19:31.147Z,994.26
2018-02-10T09:20:31.175Z,994.28
2018-02-10T09:21:31.409Z,994.22
2018-02-10T09:22:31.234Z,994.21
2018-02-10T09:23:31.268Z,994.25
2018-02-10T09:24:31.295Z,994.24
2018-02-10T09:25:31.324Z,994.21
2018-02-10T09:26:31.367Z,994.21
2018-02-10T09:27:31.392Z,994.23
2018-02-10T09:28:31.739Z,994.21
2018-02-10T09:29:31.444Z,994.26
2018-02-10T09:30:31.471Z,994.22
2018-02-10T09:31:31.499Z,994.25
2018-02-10T09:32:31.587Z,994.24
2018-02-10T09:33:31.556Z,994.27
2018-02-10T09:34:31.586Z,994.30
2018-02-10T09:35:31.616Z,994.30
2018-02-10T09:36:31.647Z,994.33
2018-02-10T09:37:31.676Z,994.36
2018-02-10T09:38:31.717Z,994.36
2018-02-10T09:39:31.735Z,994.31
2018-02-10T09:40:31.766Z,994.31
2018-02-10T09:41:31.797Z,994.33
2018-02-10T09:42:31.826Z,994.30
2018-02-10T09:43:31.859Z,994.33
2018-02-10T09:44:31.888Z,994.33
2018-02-10T09:45:31.986Z,994.34
2018-02-10T09:46:31.940Z,994.34
2018-02-10T09:47:31.971Z,994.32
2018-02-10T09:48:31.999Z,994.33
2018-02-10T09:49:32.040Z,994.32
2018-02-10T09:50:32.061Z,994.31
2018-02-10T09:51:32.089Z,994.36
2018-02-10T09:52:32.120Z,994.34
2018-02-10T09:53:32.150Z,994.33
2018-02-10T09:54:32.188Z,994.39
2018-02-10T09:55:32.211Z,994.38
2018-02-10T09:57:32.274Z,994.35
2018-02-10T09:58:32.303Z,994.39
2018-02-10T09:59:32.330Z,994.37
2018-02-10T10:00:32.371Z,994.39
2018-02-10T10:01:32.387Z,994.37
2018-02-10T10:02:32.423Z,994.38
2018-02-10T10:03:32.448Z,994.39
2018-02-10T10:04:32.804Z,994.38
2018-02-10T10:05:32.509Z,994.33
2018-02-10T10:06:32.537Z,994.38
2018-02-10T10:07:32.576Z,994.37
2018-02-10T10:08:32.662Z,994.32
2018-02-10T10:09:32.671Z,994.40
2018-02-10T10:10:32.660Z,994.37
2018-02-10T10:11:32.690Z,994.33
2018-02-10T10:12:32.717Z,994.32
2018-02-10T10:13:32.774Z,994.35
2018-02-10T10:14:32.782Z,994.33
2018-02-10T10:15:32.808Z,994.34
2018-02-10T10:16:32.839Z,994.31
2018-02-10T10:17:32.882Z,994.31
2018-02-10T10:18:32.944Z,994.28
2018-02-10T10:19:32.927Z,994.26
2018-02-10T10:20:32.959Z,994.28
2018-02-10T10:21:33.008Z,994.27
2018-02-10T10:22:33.021Z,994.27
2018-02-10T10:23:33.063Z,994.21
2018-02-10T10:24:33.097Z,994.26
2018-02-10T10:26:33.145Z,994.26
2018-02-10T10:27:33.180Z,994.26
2018-02-10T10:28:33.250Z,994.24
2018-02-10T10:29:33.228Z,994.24
2018-02-10T10:30:33.262Z,994.27
2018-02-10T10:31:33.290Z,994.21
2018-02-10T10:32:33.321Z,994.22
2018-02-10T10:33:33.352Z,994.18
2018-02-10T10:34:33.378Z,994.17
2018-02-10T10:35:33.521Z,994.15
2018-02-10T10:36:33.437Z,994.17
2018-02-10T10:37:33.468Z,994.09
2018-02-10T10:38:33.496Z,994.15
2018-02-10T10:39:33.527Z,994.15
2018-02-10T10:40:33.624Z,994.13
2018-02-10T10:41:33.594Z,994.16
2018-02-10T10:42:33.621Z,994.16
2018-02-10T10:43:33.658Z,994.18
2018-02-10T10:44:33.681Z,994.16
2018-02-10T10:45:33.720Z,994.15
2018-02-10T10:46:33.740Z,994.13
2018-02-10T10:47:33.929Z,994.18
2018-02-10T10:48:33.801Z,994.13
2018-02-10T10:49:33.829Z,994.15
2018-02-10T10:50:33.858Z,994.15
2018-02-10T10:51:33.887Z,994.19
2018-02-10T10:52:33.917Z,994.17
2018-02-10T10:53:33.989Z,994.16
2018-02-10T10:54:33.987Z,994.14
2018-02-10T10:55:34.016Z,994.15
2018-02-10T10:56:34.077Z,994.14
2018-02-10T10:57:34.130Z,994.16
2018-02-10T10:58:34.114Z,994.11
2018-02-10T10:59:34.159Z,994.14
2018-02-10T11:00:34.162Z,994.16
2018-02-10T11:01:34.186Z,994.11
2018-02-10T11:02:34.225Z,994.11
2018-02-10T11:03:34.249Z,994.13
2018-02-10T11:04:34.698Z,994.10
2018-02-10T11:05:34.373Z,994.09
2018-02-10T11:06:34.345Z,994.10
2018-02-10T11:07:34.368Z,994.04
2018-02-10T11:08:34.403Z,994.05
2018-02-10T11:09:34.432Z,994.04
2018-02-10T11:10:34.458Z,994.08
2018-02-10T11:11:34.489Z,994.09
2018-02-10T11:12:34.518Z,994.07
2018-02-10T11:13:34.561Z,994.05
2018-02-10T11:14:34.646Z,994.08
2018-02-10T11:15:34.609Z,994.02
2018-02-10T11:16:34.848Z,994.03
2018-02-10T11:17:34.670Z,994.02
2018-02-10T11:18:34.703Z,993.98
2018-02-10T11:19:34.752Z,993.98
2018-02-10T11:20:34.762Z,994.00
2018-02-10T11:21:34.798Z,993.98
2018-02-10T11:22:34.828Z,993.98
2018-02-10T11:23:35.053Z,993.99
2018-02-10T11:24:34.882Z,993.97
2018-02-10T11:25:34.913Z,993.95
2018-02-10T11:26:34.941Z,993.96
2018-02-10T11:27:34.971Z,993.94
2018-02-10T11:28:35.002Z,993.95
2018-02-10T11:29:35.045Z,993.98
2018-02-10T11:30:35.072Z,994.01
2018-02-10T11:31:35.102Z,993.98
2018-02-10T11:32:35.123Z,993.99
2018-02-10T11:33:35.197Z,993.97
2018-02-10T11:34:35.184Z,993.94
2018-02-10T11:35:35.219Z,994.00
2018-02-10T11:36:35.243Z,993.99
2018-02-10T11:38:35.304Z,993.95
2018-02-10T11:39:35.334Z,993.94
2018-02-10T11:40:35.425Z,993.96
2018-02-10T11:41:35.494Z,993.95
2018-02-10T11:42:35.826Z,993.92
2018-02-10T11:43:35.454Z,993.98
2018-02-10T11:44:35.482Z,993.95
2018-02-10T11:45:35.522Z,993.96
2018-02-10T11:46:35.646Z,993.96
2018-02-10T11:47:35.594Z,993.92
2018-02-10T11:48:35.613Z,993.97
2018-02-10T11:49:35.634Z,994.00
2018-02-10T11:50:35.721Z,993.96
2018-02-10T11:51:35.748Z,993.94
2018-02-10T11:52:36.705Z,993.93
2018-02-10T11:53:35.821Z,993.92
2018-02-10T11:54:35.834Z,993.96
2018-02-10T11:55:35.815Z,993.89
2018-02-10T11:57:35.880Z,993.92
2018-02-10T11:58:36.108Z,993.98
2018-02-10T11:59:35.955Z,993.96
2018-02-10T12:00:35.965Z,993.97
2018-02-10T12:01:35.997Z,993.98
2018-02-10T12:02:36.039Z,993.98
2018-02-10T12:03:36.069Z,994.00
2018-02-10T12:04:36.087Z,993.94
2018-02-10T12:05:36.144Z,993.98
2018-02-10T12:06:36.153Z,994.02
2018-02-10T12:07:36.176Z,993.96
2018-02-10T12:08:36.206Z,993.97
2018-02-10T12:09:36.238Z,993.98
2018-02-10T12:10:36.283Z,993.95
2018-02-10T12:11:36.299Z,993.91
2018-02-10T12:12:36.331Z,993.92
2018-02-10T12:13:36.389Z,993.93
2018-02-10T12:14:36.393Z,993.89
2018-02-10T12:15:36.648Z,993.91
2018-02-10T12:16:36.454Z,993.85
2018-02-10T12:17:36.484Z,993.85
2018-02-10T12:18:36.516Z,993.85
2018-02-10T12:19:36.619Z,993.81
2018-02-10T12:20:36.574Z,993.83
2018-02-10T12:21:36.610Z,993.81
2018-02-10T12:22:36.659Z,993.80
2018-02-10T12:23:36.668Z,993.83
2018-02-10T12:24:36.719Z,993.80
2018-02-10T12:25:36.730Z,993.79
2018-02-10T12:26:36.816Z,993.77
2018-02-10T12:27:36.795Z,993.75
2018-02-10T12:28:36.822Z,993.76
2018-02-10T12:29:36.860Z,993.76
2018-02-10T12:30:36.881Z,993.80
2018-02-10T12:31:36.911Z,993.77
2018-02-10T12:32:36.954Z,993.79
2018-02-10T12:33:36.977Z,993.79
2018-02-10T12:34:37.008Z,993.75
2018-02-10T12:35:37.061Z,993.81
2018-02-10T12:36:37.066Z,993.74
2018-02-10T12:37:37.098Z,993.75